createdAt,value
2022-09-28T00:00:33.817Z,40.6
2022-09-28T00:01:35.650Z,40.6
2022-09-28T00:02:40.532Z,40.6
2022-09-28T00:03:45.425Z,40.5
2022-09-28T00:04:47.173Z,40.5
2022-09-28T00:05:48.825Z,40.5
2022-09-28T00:06:50.614Z,40.5
2022-09-28T00:07:52.235Z,40.5
2022-09-28T00:08:53.960Z,40.5
2022-09-28T00:09:55.704Z,40.5
2022-09-28T00:10:57.360Z,40.5
2022-09-28T00:11:58.980Z,40.5
2022-09-28T00:13:00.644Z,40.5
2022-09-28T00:14:02.501Z,40.5
2022-09-28T00:15:04.116Z,40.5
2022-09-28T00:16:06.010Z,40.5
2022-09-28T00:17:07.880Z,40.5
2022-09-28T00:18:09.482Z,40.5
2022-09-28T00:19:11.132Z,40.5
2022-09-28T00:20:12.775Z,40.5
2022-09-28T00:21:14.520Z,40.5
2022-09-28T00:22:16.133Z,40.5
2022-09-28T00:23:17.795Z,40.5
2022-09-28T00:24:27.449Z,40.5
2022-09-28T00:25:29.602Z,40.5
2022-09-28T00:26:31.191Z,40.4
2022-09-28T00:27:32.818Z,40.4
2022-09-28T00:28:34.397Z,40.4
2022-09-28T00:29:36.038Z,40.4
2022-09-28T00:30:37.718Z,40.4
2022-09-28T00:31:39.586Z,40.4
2022-09-28T00:32:41.460Z,40.4
2022-09-28T00:33:43.133Z,40.5
2022-09-28T00:34:44.657Z,40.4
2022-09-28T00:35:46.363Z,40.5
2022-09-28T00:36:48.215Z,40.5
2022-09-28T00:37:49.965Z,40.4
2022-09-28T00:38:51.732Z,40.4
2022-09-28T00:39:53.448Z,40.4
2022-09-28T00:40:55.244Z,40.4
2022-09-28T00:41:57.453Z,40.5
2022-09-28T00:42:59.102Z,40.5
2022-09-28T00:44:00.871Z,40.5
2022-09-28T00:45:02.598Z,40.4
2022-09-28T00:46:04.436Z,40.4
2022-09-28T00:47:06.505Z,40.4
2022-09-28T00:48:08.144Z,40.4
2022-09-28T00:49:09.812Z,40.4
2022-09-28T00:50:11.720Z,40.4
2022-09-28T00:51:13.352Z,40.4
2022-09-28T00:52:15.238Z,40.4
2022-09-28T00:53:16.790Z,40.4
2022-09-28T00:54:18.352Z,40.4
2022-09-28T00:55:20.016Z,40.4
2022-09-28T00:56:21.686Z,40.4
2022-09-28T00:57:23.361Z,40.5
2022-09-28T00:58:25.077Z,40.5
2022-09-28T00:59:26.646Z,40.4
2022-09-28T01:00:28.411Z,40.4
2022-09-28T01:01:30.360Z,40.4
2022-09-28T01:02:32.348Z,40.4
2022-09-28T01:03:34.570Z,40.4
2022-09-28T01:04:36.151Z,40.4
2022-09-28T01:05:37.910Z,40.4
2022-09-28T01:06:39.492Z,40.4
2022-09-28T01:07:41.059Z,40.4
2022-09-28T01:08:42.794Z,40.4
2022-09-28T01:09:44.440Z,40.3
2022-09-28T01:10:46.129Z,40.3
2022-09-28T01:11:47.870Z,40.3
2022-09-28T01:12:49.515Z,40.3
2022-09-28T01:13:51.118Z,40.3
2022-09-28T01:14:52.716Z,40.3
2022-09-28T01:15:54.434Z,40.3
2022-09-28T01:16:56.532Z,40.3
2022-09-28T01:17:58.076Z,40.3
2022-09-28T01:18:59.856Z,40.3
2022-09-28T01:20:01.523Z,40.3
2022-09-28T01:21:05.950Z,40.3
2022-09-28T01:22:07.531Z,40.3
2022-09-28T01:23:11.833Z,40.3
2022-09-28T01:24:13.428Z,40.3
2022-09-28T01:25:14.998Z,40.3
2022-09-28T01:26:16.745Z,40.3
2022-09-28T01:27:18.450Z,40.3
2022-09-28T01:28:20.092Z,40.3
2022-09-28T01:29:21.735Z,40.3
2022-09-28T01:30:23.381Z,40.3
2022-09-28T01:31:25.066Z,40.3
2022-09-28T01:32:26.918Z,40.3
2022-09-28T01:33:28.623Z,40.3
2022-09-28T01:34:30.153Z,40.3
2022-09-28T01:35:31.816Z,40.3
2022-09-28T01:36:33.355Z,40.3
2022-09-28T01:37:35.000Z,40.3
2022-09-28T01:38:36.650Z,40.3
2022-09-28T01:39:38.298Z,40.3
2022-09-28T01:40:40.032Z,40.3
2022-09-28T01:41:42.140Z,40.3
2022-09-28T01:42:43.944Z,40.3
2022-09-28T01:43:45.589Z,40.3
2022-09-28T01:44:47.134Z,40.2
2022-09-28T01:45:48.851Z,40.3
2022-09-28T01:46:50.642Z,40.3
2022-09-28T01:47:52.251Z,40.2
2022-09-28T01:48:53.919Z,40.2
2022-09-28T01:49:55.461Z,40.2
2022-09-28T01:50:57.209Z,40.2
2022-09-28T01:51:58.826Z,40.2
2022-09-28T01:53:00.468Z,40.2
2022-09-28T01:54:02.040Z,40.2
2022-09-28T01:55:03.632Z,40.2
2022-09-28T01:56:05.361Z,40.2
2022-09-28T01:57:07.183Z,40.2
2022-09-28T01:58:08.795Z,40.2
2022-09-28T01:59:10.512Z,40.2
2022-09-28T02:00:12.328Z,40.2
2022-09-28T02:01:14.210Z,40.2
2022-09-28T02:02:16.383Z,40.2
2022-09-28T02:03:18.430Z,40.2
2022-09-28T02:04:20.100Z,40.2
2022-09-28T02:05:21.677Z,40.2
2022-09-28T02:06:23.321Z,40.2
2022-09-28T02:07:24.964Z,40.2
2022-09-28T02:08:26.500Z,40.2
2022-09-28T02:09:33.982Z,40.2
2022-09-28T02:10:35.620Z,40.2
2022-09-28T02:11:37.203Z,40.2
2022-09-28T02:12:39.029Z,40.2
2022-09-28T02:13:40.636Z,40.2
2022-09-28T02:14:42.418Z,40.2
2022-09-28T02:15:43.960Z,40.2
2022-09-28T02:16:45.637Z,40.2
2022-09-28T02:17:47.685Z,40.2
2022-09-28T02:18:49.310Z,40.2
2022-09-28T02:19:50.840Z,40.2
2022-09-28T02:20:52.375Z,40.2
2022-09-28T02:21:54.146Z,40.1
2022-09-28T02:22:55.834Z,40.1
2022-09-28T02:23:57.538Z,40.1
2022-09-28T02:24:59.190Z,40.1
2022-09-28T02:26:00.732Z,40.1
2022-09-28T02:27:02.342Z,40.1
2022-09-28T02:28:03.960Z,40.1
2022-09-28T02:29:05.769Z,40.2
2022-09-28T02:30:07.423Z,40.1
2022-09-28T02:31:09.215Z,40.1
2022-09-28T02:32:11.260Z,40.1
2022-09-28T02:33:12.859Z,40.1
2022-09-28T02:34:14.601Z,40.2
2022-09-28T02:35:16.129Z,40.1
2022-09-28T02:36:17.690Z,40.1
2022-09-28T02:37:19.336Z,40.1
2022-09-28T02:38:20.878Z,40.1
2022-09-28T02:39:22.523Z,40.1
2022-09-28T02:40:24.416Z,40.1
2022-09-28T02:41:26.165Z,40.1
2022-09-28T02:42:27.892Z,40.1
2022-09-28T02:43:29.617Z,40.1
2022-09-28T02:44:31.231Z,40.1
2022-09-28T02:45:32.924Z,40.1
2022-09-28T02:46:34.707Z,40.1
2022-09-28T02:47:36.299Z,40.1
2022-09-28T02:48:45.759Z,40.1
2022-09-28T02:50:31.832Z,40
2022-09-28T02:51:33.502Z,39.9
2022-09-28T02:52:35.311Z,39.9
2022-09-28T02:53:36.846Z,40
2022-09-28T02:54:38.384Z,40
2022-09-28T02:55:40.042Z,40
2022-09-28T02:56:41.578Z,40
2022-09-28T02:57:43.359Z,40
2022-09-28T02:58:45.018Z,40
2022-09-28T02:59:46.730Z,40
2022-09-28T03:00:48.451Z,40
2022-09-28T03:01:50.567Z,40
2022-09-28T03:02:52.481Z,40
2022-09-28T03:03:54.011Z,40
2022-09-28T03:04:55.548Z,40
2022-09-28T03:05:57.080Z,39.9
2022-09-28T03:06:58.629Z,39.9
2022-09-28T03:08:00.603Z,39.9
2022-09-28T03:09:02.245Z,40
2022-09-28T03:10:03.783Z,40
2022-09-28T03:11:05.535Z,40
2022-09-28T03:12:07.160Z,40
2022-09-28T03:13:08.850Z,40
2022-09-28T03:14:10.682Z,40
2022-09-28T03:15:12.395Z,40
2022-09-28T03:16:14.231Z,40
2022-09-28T03:17:16.345Z,40
2022-09-28T03:18:17.955Z,40
2022-09-28T03:19:19.495Z,40
2022-09-28T03:20:21.267Z,40
2022-09-28T03:21:22.910Z,40
2022-09-28T03:22:24.559Z,40
2022-09-28T03:23:26.209Z,40
2022-09-28T03:24:28.051Z,40
2022-09-28T03:25:29.700Z,40
2022-09-28T03:26:31.341Z,40
2022-09-28T03:27:32.930Z,40
2022-09-28T03:28:34.560Z,40
2022-09-28T03:29:36.380Z,40
2022-09-28T03:30:37.997Z,40
2022-09-28T03:31:39.705Z,40
2022-09-28T03:32:41.723Z,39.9
2022-09-28T03:33:43.426Z,39.9
2022-09-28T03:34:45.190Z,39.9
2022-09-28T03:35:46.732Z,39.9
2022-09-28T03:36:48.276Z,39.9
2022-09-28T03:37:49.837Z,39.9
2022-09-28T03:38:51.377Z,39.9
2022-09-28T03:39:53.036Z,39.9
2022-09-28T03:40:54.852Z,39.9
2022-09-28T03:41:56.942Z,39.9
2022-09-28T03:42:59.483Z,39.9
2022-09-28T03:44:01.043Z,39.9
2022-09-28T03:45:02.906Z,39.9
2022-09-28T03:46:04.698Z,39.9
2022-09-28T03:47:06.752Z,39.9
2022-09-28T03:48:08.302Z,39.9
2022-09-28T03:49:10.159Z,39.8
2022-09-28T03:50:12.200Z,39.8
2022-09-28T03:51:13.802Z,39.8
2022-09-28T03:52:15.494Z,39.9
2022-09-28T03:53:17.137Z,39.8
2022-09-28T03:54:18.732Z,39.8
2022-09-28T03:55:20.269Z,39.8
2022-09-28T03:56:21.928Z,39.8
2022-09-28T03:57:23.568Z,39.8
2022-09-28T03:58:25.211Z,39.8
2022-09-28T03:59:26.949Z,39.8
2022-09-28T04:00:28.554Z,39.8
2022-09-28T04:01:30.505Z,39.8
2022-09-28T04:02:32.580Z,39.8
2022-09-28T04:03:34.407Z,39.7
2022-09-28T04:04:35.951Z,39.8
2022-09-28T04:05:37.549Z,39.8
2022-09-28T04:06:39.195Z,39.8
2022-09-28T04:07:40.809Z,39.8
2022-09-28T04:08:42.353Z,39.8
2022-09-28T04:09:43.992Z,39.8
2022-09-28T04:10:45.560Z,39.9
2022-09-28T04:12:04.555Z,39.9
2022-09-28T04:13:06.366Z,39.9
2022-09-28T04:14:08.062Z,39.8
2022-09-28T04:15:09.633Z,39.9
2022-09-28T04:16:11.662Z,39.9
2022-09-28T04:17:13.637Z,40
2022-09-28T04:18:15.410Z,40
2022-09-28T04:19:17.188Z,39.8
2022-09-28T04:20:19.166Z,39.8
2022-09-28T04:21:20.699Z,39.8
2022-09-28T04:22:22.251Z,39.7
2022-09-28T04:23:24.157Z,39.7
2022-09-28T04:24:25.709Z,39.7
2022-09-28T04:25:27.321Z,39.7
2022-09-28T04:26:28.995Z,39.9
2022-09-28T04:27:30.615Z,40
2022-09-28T04:28:32.292Z,40.3
2022-09-28T04:29:33.901Z,40.3
2022-09-28T04:30:35.596Z,40.2
2022-09-28T04:31:37.541Z,40.1
2022-09-28T04:32:39.493Z,40.2
2022-09-28T04:33:41.033Z,40.3
2022-09-28T04:34:44.710Z,40.2
2022-09-28T04:35:46.229Z,40.4
2022-09-28T04:36:47.767Z,40.3
2022-09-28T04:37:49.442Z,40.4
2022-09-28T04:38:53.851Z,40.3
2022-09-28T04:39:55.502Z,40.2
2022-09-28T04:40:57.289Z,40.1
2022-09-28T04:41:59.133Z,40.1
2022-09-28T04:43:00.702Z,40.2
2022-09-28T04:44:02.387Z,40.2
2022-09-28T04:45:04.134Z,40.2
2022-09-28T04:46:06.000Z,39.9
2022-09-28T04:47:07.871Z,39.9
2022-09-28T04:48:09.676Z,39.9
2022-09-28T04:49:11.344Z,39.9
2022-09-28T04:50:13.124Z,40
2022-09-28T04:51:14.820Z,40
2022-09-28T04:52:18.929Z,40
2022-09-28T04:53:20.504Z,39.9
2022-09-28T04:54:22.019Z,39.9
2022-09-28T04:55:23.963Z,40
2022-09-28T04:56:25.499Z,39.9
2022-09-28T04:57:27.252Z,39.9
2022-09-28T04:58:28.931Z,39.9
2022-09-28T04:59:30.744Z,39.8
2022-09-28T05:00:32.362Z,39.7
2022-09-28T05:01:34.341Z,39.7
2022-09-28T05:02:36.653Z,39.6
2022-09-28T05:03:38.698Z,39.5
2022-09-28T05:04:40.250Z,39.6
2022-09-28T05:05:41.852Z,39.7
2022-09-28T05:06:43.410Z,39.7
2022-09-28T05:07:45.029Z,39.3
2022-09-28T05:08:46.676Z,39
2022-09-28T05:09:48.376Z,39.3
2022-09-28T05:10:49.961Z,39
2022-09-28T05:11:51.619Z,39.1
2022-09-28T05:12:53.255Z,39.2
2022-09-28T05:13:54.903Z,39.1
2022-09-28T05:14:56.550Z,39
2022-09-28T05:16:05.342Z,38.9
2022-09-28T05:17:07.729Z,38.9
2022-09-28T05:18:09.469Z,38.9
2022-09-28T05:19:11.077Z,39
2022-09-28T05:20:12.611Z,39
2022-09-28T05:21:14.147Z,38.7
2022-09-28T05:22:15.745Z,39
2022-09-28T05:23:17.494Z,39
2022-09-28T05:24:19.076Z,38.7
2022-09-28T05:25:20.625Z,38.8
2022-09-28T05:26:22.170Z,38.7
2022-09-28T05:27:24.073Z,38.5
2022-09-28T05:28:25.719Z,38.4
2022-09-28T05:29:32.530Z,38.4
2022-09-28T05:30:34.542Z,38.3
2022-09-28T05:31:36.322Z,38.2
2022-09-28T05:32:38.164Z,38.2
2022-09-28T05:33:39.847Z,38.1
2022-09-28T05:34:41.492Z,38.1
2022-09-28T05:35:43.051Z,37.9
2022-09-28T05:36:44.719Z,37.9
2022-09-28T05:37:46.464Z,37.8
2022-09-28T05:38:48.110Z,37.8
2022-09-28T05:39:49.645Z,37.8
2022-09-28T05:40:51.347Z,37.7
2022-09-28T05:41:53.119Z,37.7
2022-09-28T05:42:54.792Z,37.9
2022-09-28T05:43:56.541Z,37.9
2022-09-28T05:44:58.156Z,38
2022-09-28T05:45:59.835Z,38.1
2022-09-28T05:47:01.930Z,38
2022-09-28T05:48:03.563Z,37.9
2022-09-28T05:49:05.219Z,37.7
2022-09-28T05:50:06.884Z,37.6
2022-09-28T05:51:08.529Z,37.8
2022-09-28T05:52:10.305Z,37.8
2022-09-28T05:53:11.962Z,37.8
2022-09-28T05:54:13.613Z,37.7
2022-09-28T05:55:15.607Z,37.8
2022-09-28T05:56:17.434Z,37.9
2022-09-28T05:57:19.260Z,38
2022-09-28T05:58:20.972Z,37.9
2022-09-28T05:59:22.662Z,37.8
2022-09-28T06:00:24.417Z,37.8
2022-09-28T06:01:26.228Z,37.8
2022-09-28T06:02:28.522Z,37.8
2022-09-28T06:03:30.487Z,38
2022-09-28T06:04:32.149Z,38
2022-09-28T06:05:33.962Z,38
2022-09-28T06:06:35.496Z,37.9
2022-09-28T06:07:37.149Z,37.9
2022-09-28T06:08:38.692Z,37.8
2022-09-28T06:09:40.341Z,37.8
2022-09-28T06:10:41.988Z,37.8
2022-09-28T06:11:43.599Z,37.8
2022-09-28T06:12:45.216Z,37.9
2022-09-28T06:13:46.763Z,37.8
2022-09-28T06:14:48.496Z,37.8
2022-09-28T06:15:50.105Z,37.8
2022-09-28T06:16:51.923Z,37.9
2022-09-28T06:17:53.910Z,37.9
2022-09-28T06:18:55.476Z,38
2022-09-28T06:19:57.140Z,37.7
2022-09-28T06:20:58.707Z,37.7
2022-09-28T06:22:00.390Z,37.8
2022-09-28T06:23:02.031Z,37.7
2022-09-28T06:24:03.560Z,37.5
2022-09-28T06:25:05.132Z,37.5
2022-09-28T06:26:06.834Z,37.6
2022-09-28T06:27:08.615Z,37.6
2022-09-28T06:28:10.154Z,37.7
2022-09-28T06:29:19.417Z,37.8
2022-09-28T06:30:21.494Z,37.7
2022-09-28T06:31:23.713Z,37.8
2022-09-28T06:32:25.764Z,37.8
2022-09-28T06:33:27.374Z,37.8
2022-09-28T06:34:28.970Z,37.7
2022-09-28T06:35:30.699Z,37.6
2022-09-28T06:36:32.641Z,37.6
2022-09-28T06:37:34.257Z,37.6
2022-09-28T06:38:35.895Z,37.5
2022-09-28T06:39:37.674Z,37.4
2022-09-28T06:40:39.373Z,37.3
2022-09-28T06:41:41.475Z,37.3
2022-09-28T06:42:43.226Z,37.4
2022-09-28T06:43:44.840Z,37.4
2022-09-28T06:44:46.385Z,37.4
2022-09-28T06:45:48.149Z,37.4
2022-09-28T06:46:50.009Z,37.4
2022-09-28T06:47:51.578Z,37.3
2022-09-28T06:48:53.119Z,37.4
2022-09-28T06:49:54.680Z,37.4
2022-09-28T06:50:56.321Z,37.3
2022-09-28T06:51:58.136Z,37.3
2022-09-28T06:52:59.711Z,37.4
2022-09-28T06:54:01.558Z,37.4
2022-09-28T06:55:03.136Z,37.4
2022-09-28T06:56:04.712Z,37.5
2022-09-28T06:57:06.362Z,37.4
2022-09-28T06:58:07.922Z,37.4
2022-09-28T06:59:09.538Z,37.6
2022-09-28T07:00:11.152Z,37.6
2022-09-28T07:01:12.904Z,37.6
2022-09-28T07:02:15.011Z,37.6
2022-09-28T07:03:17.090Z,37.7
2022-09-28T07:04:19.161Z,37.7
2022-09-28T07:05:20.948Z,37.6
2022-09-28T07:06:22.641Z,37.6
2022-09-28T07:07:24.451Z,37.4
2022-09-28T07:08:26.110Z,37.3
2022-09-28T07:09:36.924Z,37.3
2022-09-28T07:10:52.674Z,37.4
2022-09-28T07:11:54.488Z,37.3
2022-09-28T07:12:56.124Z,37.3
2022-09-28T07:13:57.775Z,37.3
2022-09-28T07:14:59.346Z,37.4
2022-09-28T07:16:00.969Z,37.4
2022-09-28T07:17:14.553Z,37.4
2022-09-28T07:18:17.375Z,37.4
2022-09-28T07:19:19.518Z,37.3
2022-09-28T07:20:21.180Z,37.3
2022-09-28T07:21:30.731Z,37.4
2022-09-28T07:22:43.796Z,37.5
2022-09-28T07:23:54.369Z,37.3
2022-09-28T07:24:56.171Z,37.3
2022-09-28T07:25:57.856Z,37.2
2022-09-28T07:26:59.576Z,37.2
2022-09-28T07:28:01.137Z,37.2
2022-09-28T07:29:02.771Z,37.1
2022-09-28T07:30:04.371Z,37.2
2022-09-28T07:31:06.239Z,37.3
2022-09-28T07:32:08.213Z,37.2
2022-09-28T07:33:09.957Z,37.2
2022-09-28T07:34:11.779Z,37.2
2022-09-28T07:35:13.608Z,37.3
2022-09-28T07:36:15.339Z,37.2
2022-09-28T07:37:16.968Z,37.2
2022-09-28T07:38:18.943Z,37.3
2022-09-28T07:39:20.614Z,37.3
2022-09-28T07:40:22.466Z,37.3
2022-09-28T07:41:24.337Z,37.2
2022-09-28T07:42:25.938Z,37.2
2022-09-28T07:43:27.648Z,37.2
2022-09-28T07:44:29.378Z,37.1
2022-09-28T07:45:31.302Z,37.1
2022-09-28T07:46:33.229Z,37.2
2022-09-28T07:47:35.593Z,37.2
2022-09-28T07:48:37.217Z,37.2
2022-09-28T07:49:38.990Z,37.2
2022-09-28T07:50:40.837Z,37.2
2022-09-28T07:51:42.681Z,37.2
2022-09-28T07:52:44.350Z,37.2
2022-09-28T07:53:46.245Z,37.1
2022-09-28T07:54:47.955Z,37.1
2022-09-28T07:55:49.775Z,37.2
2022-09-28T07:56:51.529Z,37.1
2022-09-28T07:57:53.234Z,37.2
2022-09-28T07:58:55.010Z,37.1
2022-09-28T07:59:56.598Z,37.1
2022-09-28T08:00:58.504Z,37.1
2022-09-28T08:02:00.518Z,37.1
2022-09-28T08:03:02.838Z,37.1
2022-09-28T08:04:04.640Z,37
2022-09-28T08:05:06.348Z,37.1
2022-09-28T08:06:08.076Z,37
2022-09-28T08:07:09.681Z,37
2022-09-28T08:08:11.692Z,37.1
2022-09-28T08:09:13.746Z,37.1
2022-09-28T08:10:16.249Z,37.1
2022-09-28T08:11:17.819Z,37.1
2022-09-28T08:12:19.588Z,37.1
2022-09-28T08:13:26.958Z,37.1
2022-09-28T08:14:29.225Z,37.1
2022-09-28T08:15:33.333Z,37
2022-09-28T08:16:35.229Z,37
2022-09-28T08:17:37.275Z,37.2
2022-09-28T08:18:38.881Z,37.1
2022-09-28T08:19:40.617Z,37.2
2022-09-28T08:20:42.264Z,37.1
2022-09-28T08:21:43.913Z,37.1
2022-09-28T08:22:45.479Z,37.3
2022-09-28T08:23:47.690Z,37.2
2022-09-28T08:24:49.657Z,37.1
2022-09-28T08:25:51.221Z,37.2
2022-09-28T08:26:52.847Z,37.3
2022-09-28T08:27:54.606Z,37.3
2022-09-28T08:28:56.298Z,37.3
2022-09-28T08:29:58.091Z,37.2
2022-09-28T08:30:59.821Z,37.2
2022-09-28T08:32:02.293Z,37.2
2022-09-28T08:33:04.013Z,37.2
2022-09-28T08:34:05.573Z,37.3
2022-09-28T08:35:07.334Z,37.2
2022-09-28T08:36:08.880Z,37.1
2022-09-28T08:37:10.529Z,37.2
2022-09-28T08:38:12.121Z,37.4
2022-09-28T08:39:13.801Z,37.4
2022-09-28T08:40:15.916Z,37.2
2022-09-28T08:41:17.774Z,37.3
2022-09-28T08:42:19.423Z,37.3
2022-09-28T08:43:21.117Z,37.3
2022-09-28T08:44:22.866Z,37.3
2022-09-28T08:45:24.621Z,37.3
2022-09-28T08:46:27.548Z,37.3
2022-09-28T08:47:29.363Z,37.3
2022-09-28T08:48:30.920Z,37.3
2022-09-28T08:49:33.216Z,37.2
2022-09-28T08:50:35.837Z,37.2
2022-09-28T08:51:37.511Z,37.2
2022-09-28T08:52:39.127Z,37.3
2022-09-28T08:53:43.395Z,37.3
2022-09-28T08:54:45.176Z,37.3
2022-09-28T08:55:46.955Z,37.3
2022-09-28T08:56:48.642Z,37.4
2022-09-28T08:57:50.185Z,37.3
2022-09-28T08:58:51.855Z,37.4
2022-09-28T08:59:53.618Z,37.2
2022-09-28T09:00:55.493Z,37.3
2022-09-28T09:01:58.461Z,37.2
2022-09-28T09:03:00.653Z,37.2
2022-09-28T09:04:02.410Z,37.3
2022-09-28T09:05:04.057Z,37.3
2022-09-28T09:06:05.698Z,37.2
2022-09-28T09:07:07.346Z,37.3
2022-09-28T09:08:09.094Z,37.2
2022-09-28T09:09:10.635Z,37.3
2022-09-28T09:10:12.424Z,37.3
2022-09-28T09:11:14.174Z,37.3
2022-09-28T09:12:16.229Z,37.4
2022-09-28T09:13:17.932Z,37.4
2022-09-28T09:14:19.613Z,37.4
2022-09-28T09:15:21.222Z,37.4
2022-09-28T09:16:22.891Z,37.4
2022-09-28T09:17:24.789Z,37.5
2022-09-28T09:18:26.483Z,37.5
2022-09-28T09:19:28.070Z,37.5
2022-09-28T09:20:29.619Z,37.5
2022-09-28T09:21:31.162Z,37.5
2022-09-28T09:22:32.743Z,37.5
2022-09-28T09:23:34.391Z,37.5
2022-09-28T09:24:36.027Z,37.5
2022-09-28T09:25:38.934Z,37.5
2022-09-28T09:26:40.589Z,37.5
2022-09-28T09:27:42.138Z,37.5
2022-09-28T09:28:43.845Z,37.5
2022-09-28T09:29:45.479Z,37.5
2022-09-28T09:30:47.256Z,37.7
2022-09-28T09:31:49.218Z,37.8
2022-09-28T09:32:50.780Z,37.8
2022-09-28T09:33:52.339Z,37.6
2022-09-28T09:34:53.881Z,37.7
2022-09-28T09:35:55.457Z,37.6
2022-09-28T09:36:56.990Z,37.7
2022-09-28T09:37:58.955Z,37.7
2022-09-28T09:39:00.698Z,37.8
2022-09-28T09:40:02.397Z,37.8
2022-09-28T09:41:04.386Z,37.9
2022-09-28T09:42:06.637Z,37.9
2022-09-28T09:43:08.341Z,37.9
2022-09-28T09:44:09.984Z,37.9
2022-09-28T09:45:12.004Z,37.7
2022-09-28T09:46:13.710Z,37.4
2022-09-28T09:47:15.812Z,37.4
2022-09-28T09:48:17.421Z,37.7
2022-09-28T09:50:20.337Z,37.7
2022-09-28T09:51:21.898Z,37.6
2022-09-28T09:52:23.878Z,37.6
2022-09-28T09:53:25.927Z,37.7
2022-09-28T09:54:30.713Z,37.7
2022-09-28T09:55:32.296Z,37.7
2022-09-28T09:56:34.020Z,37.6
2022-09-28T09:57:35.786Z,37.5
2022-09-28T09:58:37.337Z,37.5
2022-09-28T09:59:38.879Z,37.5
2022-09-28T10:00:40.519Z,37.5
2022-09-28T10:01:42.460Z,37.3
2022-09-28T10:02:44.515Z,37.4
2022-09-28T10:03:46.512Z,37.3
2022-09-28T10:04:48.234Z,37.3
2022-09-28T10:05:49.935Z,37.2
2022-09-28T10:06:51.573Z,37.3
2022-09-28T10:07:53.300Z,37.4
2022-09-28T10:08:55.001Z,37.4
2022-09-28T10:09:56.826Z,37.3
2022-09-28T10:11:01.667Z,37.3
2022-09-28T10:12:03.524Z,37.4
2022-09-28T10:13:05.592Z,37.4
2022-09-28T10:14:07.304Z,37.4
2022-09-28T10:15:08.904Z,37.3
2022-09-28T10:16:10.466Z,37.2
2022-09-28T10:17:12.236Z,37.3
2022-09-28T10:18:13.884Z,37.2
2022-09-28T10:19:18.813Z,37.2
2022-09-28T10:20:20.930Z,37.3
2022-09-28T10:21:22.631Z,37.4
2022-09-28T10:22:24.367Z,37.3
2022-09-28T10:23:25.969Z,37.4
2022-09-28T10:24:27.701Z,37.5
2022-09-28T10:25:29.498Z,37.5
2022-09-28T10:26:31.163Z,37.7
2022-09-28T10:27:32.939Z,37.6
2022-09-28T10:28:34.686Z,37.8
2022-09-28T10:29:36.394Z,37.7
2022-09-28T10:30:38.237Z,37.6
2022-09-28T10:31:40.146Z,37.6
2022-09-28T10:32:41.935Z,37.6
2022-09-28T10:33:43.609Z,37.4
2022-09-28T10:34:51.124Z,37.6
2022-09-28T10:35:53.152Z,37.5
2022-09-28T10:36:54.874Z,37.5
2022-09-28T10:37:56.606Z,37.4
2022-09-28T10:38:58.377Z,37.5
2022-09-28T10:40:00.028Z,37.6
2022-09-28T10:41:02.063Z,37.6
2022-09-28T10:42:04.222Z,37.5
2022-09-28T10:43:06.127Z,37.4
2022-09-28T10:44:07.926Z,37.5
2022-09-28T10:45:09.527Z,37.4
2022-09-28T10:46:11.381Z,37.4
2022-09-28T10:47:13.469Z,37.4
2022-09-28T10:48:15.097Z,37.4
2022-09-28T10:49:16.759Z,37.3
2022-09-28T10:50:18.413Z,37.2
2022-09-28T10:51:20.255Z,37.3
2022-09-28T10:52:21.931Z,37.3
2022-09-28T10:53:23.617Z,37.3
2022-09-28T10:54:25.295Z,37.3
2022-09-28T10:55:27.138Z,37.3
2022-09-28T10:56:28.884Z,37.3
2022-09-28T10:57:30.442Z,37.4
2022-09-28T10:58:32.201Z,37.3
2022-09-28T10:59:33.987Z,37.2
2022-09-28T11:00:35.606Z,37.4
2022-09-28T11:01:37.532Z,37.5
2022-09-28T11:02:39.641Z,37.4
2022-09-28T11:03:41.933Z,37.3
2022-09-28T11:04:43.518Z,37.4
2022-09-28T11:05:45.189Z,37.3
2022-09-28T11:06:47.021Z,37.2
2022-09-28T11:07:48.934Z,37.3
2022-09-28T11:08:50.779Z,37.3
2022-09-28T11:09:53.040Z,37.1
2022-09-28T11:10:54.704Z,37.2
2022-09-28T11:11:56.417Z,37.3
2022-09-28T11:12:58.104Z,37.4
2022-09-28T11:13:59.948Z,37.4
2022-09-28T11:15:01.783Z,37.5
2022-09-28T11:16:03.395Z,37.4
2022-09-28T11:17:05.298Z,37.3
2022-09-28T11:18:07.160Z,37.3
2022-09-28T11:19:08.868Z,37.1
2022-09-28T11:20:10.461Z,37
2022-09-28T11:21:13.530Z,37.1
2022-09-28T11:22:15.239Z,37.2
2022-09-28T11:23:16.933Z,37.2
2022-09-28T11:24:19.982Z,37.3
2022-09-28T11:25:22.874Z,37.2
2022-09-28T11:26:24.552Z,37.3
2022-09-28T11:27:26.444Z,37.2
2022-09-28T11:28:28.181Z,37.2
2022-09-28T11:29:29.858Z,37.2
2022-09-28T11:30:32.007Z,37.6
2022-09-28T11:31:33.987Z,37.6
2022-09-28T11:32:35.545Z,37.5
2022-09-28T11:33:39.906Z,37.3
2022-09-28T11:35:00.249Z,37.4
2022-09-28T11:36:02.390Z,37.3
2022-09-28T11:37:03.907Z,37.2
2022-09-28T11:38:05.518Z,37
2022-09-28T11:39:07.301Z,37
2022-09-28T11:40:08.842Z,37.1
2022-09-28T11:41:10.383Z,37
2022-09-28T11:42:16.712Z,36.9
2022-09-28T11:43:18.545Z,37.1
2022-09-28T11:44:20.302Z,36.8
2022-09-28T11:45:22.023Z,37
2022-09-28T11:46:23.919Z,36.8
2022-09-28T11:47:25.886Z,36.7
2022-09-28T11:48:27.591Z,36.8
2022-09-28T11:49:29.129Z,36.9
2022-09-28T11:50:30.785Z,36.9
2022-09-28T11:51:32.627Z,37
2022-09-28T11:52:34.249Z,37
2022-09-28T11:53:36.021Z,37
2022-09-28T11:54:37.767Z,36.5
2022-09-28T11:55:39.405Z,36.6
2022-09-28T11:56:41.144Z,36.9
2022-09-28T11:57:42.936Z,37
2022-09-28T11:58:44.763Z,36.9
2022-09-28T11:59:46.361Z,37
2022-09-28T12:00:47.944Z,37.1
2022-09-28T12:01:49.899Z,37
2022-09-28T12:02:51.832Z,37
2022-09-28T12:03:53.904Z,37
2022-09-28T12:04:55.473Z,37
2022-09-28T12:05:57.099Z,36.9
2022-09-28T12:06:58.737Z,36.6
2022-09-28T12:08:00.421Z,36.5
2022-09-28T12:09:02.231Z,36.5
2022-09-28T12:10:03.851Z,36.4
2022-09-28T12:11:05.837Z,36.4
2022-09-28T12:12:07.482Z,36.4
2022-09-28T12:13:09.081Z,36.4
2022-09-28T12:14:11.080Z,36.3
2022-09-28T12:15:12.723Z,36.4
2022-09-28T12:18:21.907Z,36.3
2022-09-28T12:19:23.500Z,36.3
2022-09-28T12:20:25.226Z,36.3
2022-09-28T12:21:26.906Z,36.3
2022-09-28T12:22:28.497Z,36.5
2022-09-28T12:23:30.166Z,36.5
2022-09-28T12:24:31.714Z,36.4
2022-09-28T12:25:33.371Z,35.9
2022-09-28T12:26:38.212Z,35.4
2022-09-28T12:27:39.913Z,35.6
2022-09-28T12:28:41.579Z,35.5
2022-09-28T12:29:43.225Z,36.1
2022-09-28T12:30:45.164Z,36.4
2022-09-28T12:31:47.285Z,36.1
2022-09-28T12:32:49.004Z,36.1
2022-09-28T12:33:50.813Z,36.2
2022-09-28T12:34:52.604Z,36.2
2022-09-28T12:35:54.246Z,36.2
2022-09-28T12:36:55.844Z,36.4
2022-09-28T12:37:57.469Z,36.2
2022-09-28T12:39:41.171Z,35
2022-09-28T12:41:00.380Z,34.9
2022-09-28T12:42:02.303Z,34.3
2022-09-28T12:43:04.003Z,34.3
2022-09-28T12:44:05.583Z,34.3
2022-09-28T12:45:07.297Z,34.3
2022-09-28T12:46:13.373Z,34
2022-09-28T12:47:15.734Z,33.8
2022-09-28T12:48:17.336Z,33.9
2022-09-28T12:51:58.635Z,33.9
2022-09-28T12:53:03.468Z,34
2022-09-28T12:54:05.110Z,33.9
2022-09-28T12:55:06.905Z,33.9
2022-09-28T12:56:08.907Z,33.8
2022-09-28T12:57:11.070Z,34.4
2022-09-28T12:58:12.605Z,34.2
2022-09-28T12:59:14.261Z,34.7
2022-09-28T13:00:16.196Z,34.5
2022-09-28T13:01:18.001Z,34.6
2022-09-28T13:02:20.120Z,34.3
2022-09-28T13:03:22.095Z,34.3
2022-09-28T13:04:23.922Z,34.3
2022-09-28T13:05:25.556Z,33.9
2022-09-28T13:06:27.300Z,33.9
2022-09-28T13:07:28.942Z,33.7
2022-09-28T13:08:30.592Z,33.5
2022-09-28T13:09:32.237Z,33.5
2022-09-28T13:10:33.775Z,33.5
2022-09-28T13:11:35.431Z,33.8
2022-09-28T13:12:37.071Z,34
2022-09-28T13:13:38.684Z,34.3
2022-09-28T13:14:40.354Z,34.6
2022-09-28T13:15:42.155Z,34.5
2022-09-28T13:16:44.066Z,34.6
2022-09-28T13:17:45.976Z,34.1
2022-09-28T13:18:47.591Z,34
2022-09-28T13:19:49.356Z,33.9
2022-09-28T13:20:50.948Z,33.6
2022-09-28T13:21:52.580Z,33.6
2022-09-28T13:22:54.240Z,33.7
2022-09-28T13:24:31.456Z,33.8
2022-09-28T13:25:35.225Z,34
2022-09-28T13:26:36.862Z,33.6
2022-09-28T13:27:38.545Z,33.6
2022-09-28T13:28:40.144Z,33.4
2022-09-28T13:29:41.731Z,33.3
2022-09-28T13:30:43.670Z,33.4
2022-09-28T13:31:45.821Z,33.4
2022-09-28T13:32:47.468Z,33.5
2022-09-28T13:33:49.029Z,33.1
2022-09-28T13:34:50.742Z,33
2022-09-28T13:35:52.413Z,32.7
2022-09-28T13:36:54.002Z,32.7
2022-09-28T13:37:55.792Z,32.5
2022-09-28T13:38:57.457Z,32.5
2022-09-28T13:39:59.426Z,32.3
2022-09-28T13:41:01.684Z,32.4
2022-09-28T13:42:03.588Z,32.2
2022-09-28T13:43:05.334Z,32.2
2022-09-28T13:44:06.934Z,32.1
2022-09-28T13:45:08.621Z,32.2
2022-09-28T13:46:10.411Z,32.2
2022-09-28T13:47:12.471Z,32.1
2022-09-28T13:48:14.066Z,32.7
2022-09-28T13:49:15.718Z,33.1
2022-09-28T13:50:17.468Z,33.2
2022-09-28T13:51:19.254Z,33.2
2022-09-28T13:52:20.817Z,33.3
2022-09-28T13:53:22.394Z,33.3
2022-09-28T13:54:23.930Z,33.3
2022-09-28T13:55:25.687Z,33.4
2022-09-28T13:56:27.334Z,33.3
2022-09-28T13:57:28.978Z,33
2022-09-28T13:58:30.553Z,32.7
2022-09-28T13:59:32.137Z,32.4